sensor_id;sensor_type;location;lat;lon;timestamp;P1;durP1;ratioP1;P2;durP2;ratioP2
13238;SDS011;6686;51.292;4.166;2023-03-23T00:00:38;4.50;;;2.50;;
13238;SDS011;6686;51.292;4.166;2023-03-23T00:03:25;4.20;;;2.80;;
13238;SDS011;6686;51.292;4.166;2023-03-23T00:06:10;5.00;;;2.83;;
13238;SDS011;6686;51.292;4.166;2023-03-23T00:08:56;4.27;;;3.23;;
13238;SDS011;6686;51.292;4.166;2023-03-23T00:11:42;3.97;;;2.47;;
13238;SDS011;6686;51.292;4.166;2023-03-23T00:14:28;7.20;;;3.23;;
13238;SDS011;6686;51.292;4.166;2023-03-23T00:17:14;3.67;;;2.57;;
13238;SDS011;6686;51.292;4.166;2023-03-23T00:20:01;4.37;;;2.83;;
13238;SDS011;6686;51.292;4.166;2023-03-23T00:22:47;4.67;;;2.43;;
13238;SDS011;6686;51.292;4.166;2023-03-23T00:25:33;3.60;;;2.87;;
13238;SDS011;6686;51.292;4.166;2023-03-23T00:28:19;4.00;;;2.73;;
13238;SDS011;6686;51.292;4.166;2023-03-23T00:31:05;3.87;;;2.90;;
13238;SDS011;6686;51.292;4.166;2023-03-23T00:33:51;4.13;;;3.17;;
13238;SDS011;6686;51.292;4.166;2023-03-23T00:36:36;3.73;;;3.13;;
13238;SDS011;6686;51.292;4.166;2023-03-23T00:39:23;3.60;;;2.70;;
13238;SDS011;6686;51.292;4.166;2023-03-23T00:42:08;6.57;;;2.73;;
13238;SDS011;6686;51.292;4.166;2023-03-23T00:44:54;3.23;;;2.83;;
13238;SDS011;6686;51.292;4.166;2023-03-23T00:47:40;2.57;;;2.30;;
13238;SDS011;6686;51.292;4.166;2023-03-23T00:50:26;4.55;;;3.40;;
13238;SDS011;6686;51.292;4.166;2023-03-23T00:53:12;3.50;;;3.20;;
13238;SDS011;6686;51.292;4.166;2023-03-23T00:55:58;3.23;;;2.93;;
13238;SDS011;6686;51.292;4.166;2023-03-23T00:58:44;4.07;;;3.22;;
13238;SDS011;6686;51.292;4.166;2023-03-23T01:01:30;5.60;;;2.90;;
13238;SDS011;6686;51.292;4.166;2023-03-23T01:04:17;3.30;;;3.00;;
13238;SDS011;6686;51.292;4.166;2023-03-23T01:07:02;3.77;;;3.00;;
13238;SDS011;6686;51.292;4.166;2023-03-23T01:09:48;3.30;;;3.00;;
13238;SDS011;6686;51.292;4.166;2023-03-23T01:12:38;3.30;;;3.00;;
13238;SDS011;6686;51.292;4.166;2023-03-23T01:15:23;6.37;;;3.13;;
13238;SDS011;6686;51.292;4.166;2023-03-23T01:18:09;3.40;;;3.10;;
13238;SDS011;6686;51.292;4.166;2023-03-23T01:20:55;4.00;;;3.00;;
13238;SDS011;6686;51.292;4.166;2023-03-23T01:23:41;4.07;;;3.20;;
13238;SDS011;6686;51.292;4.166;2023-03-23T01:26:27;4.53;;;2.97;;
13238;SDS011;6686;51.292;4.166;2023-03-23T01:29:12;5.70;;;2.80;;
13238;SDS011;6686;51.292;4.166;2023-03-23T01:31:58;3.70;;;2.33;;
13238;SDS011;6686;51.292;4.166;2023-03-23T01:34:44;4.93;;;2.80;;
13238;SDS011;6686;51.292;4.166;2023-03-23T01:37:30;4.00;;;2.95;;
13238;SDS011;6686;51.292;4.166;2023-03-23T01:40:16;4.17;;;2.93;;
13238;SDS011;6686;51.292;4.166;2023-03-23T01:43:02;4.60;;;2.37;;
13238;SDS011;6686;51.292;4.166;2023-03-23T01:45:48;4.22;;;2.42;;
13238;SDS011;6686;51.292;4.166;2023-03-23T01:48:34;3.70;;;2.80;;
13238;SDS011;6686;51.292;4.166;2023-03-23T01:51:20;3.87;;;2.73;;
13238;SDS011;6686;51.292;4.166;2023-03-23T01:54:06;9.17;;;2.40;;
13238;SDS011;6686;51.292;4.166;2023-03-23T01:57:11;5.50;;;2.70;;
13238;SDS011;6686;51.292;4.166;2023-03-23T01:59:41;2.80;;;2.47;;
13238;SDS011;6686;51.292;4.166;2023-03-23T02:02:26;2.50;;;2.30;;
13238;SDS011;6686;51.292;4.166;2023-03-23T02:05:21;3.23;;;2.57;;
13238;SDS011;6686;51.292;4.166;2023-03-23T02:08:04;3.33;;;2.70;;
13238;SDS011;6686;51.292;4.166;2023-03-23T02:10:50;4.30;;;2.50;;
13238;SDS011;6686;51.292;4.166;2023-03-23T02:13:36;3.73;;;2.70;;
13238;SDS011;6686;51.292;4.166;2023-03-23T02:16:26;2.53;;;2.33;;
13238;SDS011;6686;51.292;4.166;2023-03-23T02:28:11;3.62;;;2.60;;
13238;SDS011;6686;51.292;4.166;2023-03-23T02:34:22;3.27;;;2.00;;
13238;SDS011;6686;51.292;4.166;2023-03-23T02:37:11;2.50;;;2.07;;
13238;SDS011;6686;51.292;4.166;2023-03-23T02:40:03;2.87;;;2.17;;
13238;SDS011;6686;51.292;4.166;2023-03-23T02:42:48;2.47;;;1.87;;
13238;SDS011;6686;51.292;4.166;2023-03-23T02:45:33;3.35;;;2.12;;
13238;SDS011;6686;51.292;4.166;2023-03-23T02:48:19;3.60;;;2.00;;
13238;SDS011;6686;51.292;4.166;2023-03-23T02:51:05;4.60;;;1.90;;
13238;SDS011;6686;51.292;4.166;2023-03-23T02:53:51;7.23;;;2.30;;
13238;SDS011;6686;51.292;4.166;2023-03-23T02:56:37;3.27;;;1.97;;
13238;SDS011;6686;51.292;4.166;2023-03-23T02:59:23;4.93;;;2.03;;
13238;SDS011;6686;51.292;4.166;2023-03-23T03:05:20;4.10;;;1.90;;
13238;SDS011;6686;51.292;4.166;2023-03-23T03:11:09;5.37;;;2.20;;
13238;SDS011;6686;51.292;4.166;2023-03-23T03:14:08;5.90;;;2.28;;
13238;SDS011;6686;51.292;4.166;2023-03-23T03:16:54;4.13;;;1.80;;
13238;SDS011;6686;51.292;4.166;2023-03-23T03:19:40;5.03;;;1.90;;
13238;SDS011;6686;51.292;4.166;2023-03-23T03:22:25;7.17;;;2.50;;
13238;SDS011;6686;51.292;4.166;2023-03-23T03:25:11;5.33;;;1.83;;
13238;SDS011;6686;51.292;4.166;2023-03-23T03:28:00;5.33;;;2.03;;
13238;SDS011;6686;51.292;4.166;2023-03-23T03:30:46;4.63;;;2.20;;
13238;SDS011;6686;51.292;4.166;2023-03-23T03:33:32;4.83;;;2.00;;
13238;SDS011;6686;51.292;4.166;2023-03-23T03:36:19;5.20;;;2.00;;
13238;SDS011;6686;51.292;4.166;2023-03-23T03:39:04;8.00;;;2.30;;
13238;SDS011;6686;51.292;4.166;2023-03-23T03:41:49;4.80;;;2.23;;
13238;SDS011;6686;51.292;4.166;2023-03-23T03:44:35;7.00;;;2.33;;
13238;SDS011;6686;51.292;4.166;2023-03-23T03:47:21;3.77;;;1.93;;
13238;SDS011;6686;51.292;4.166;2023-03-23T03:50:07;5.90;;;2.20;;
13238;SDS011;6686;51.292;4.166;2023-03-23T03:52:53;3.53;;;1.77;;
13238;SDS011;6686;51.292;4.166;2023-03-23T03:55:39;4.40;;;2.00;;
13238;SDS011;6686;51.292;4.166;2023-03-23T03:58:24;5.87;;;2.03;;
13238;SDS011;6686;51.292;4.166;2023-03-23T04:01:10;5.07;;;2.23;;
13238;SDS011;6686;51.292;4.166;2023-03-23T04:03:56;6.57;;;2.20;;
13238;SDS011;6686;51.292;4.166;2023-03-23T04:06:42;5.90;;;2.13;;
13238;SDS011;6686;51.292;4.166;2023-03-23T04:09:28;6.80;;;2.10;;
13238;SDS011;6686;51.292;4.166;2023-03-23T04:12:14;5.43;;;2.20;;
13238;SDS011;6686;51.292;4.166;2023-03-23T04:15:00;6.33;;;2.73;;
13238;SDS011;6686;51.292;4.166;2023-03-23T04:17:46;5.13;;;2.10;;
13238;SDS011;6686;51.292;4.166;2023-03-23T04:20:32;4.87;;;2.10;;
13238;SDS011;6686;51.292;4.166;2023-03-23T04:23:18;4.90;;;2.50;;
13238;SDS011;6686;51.292;4.166;2023-03-23T04:26:04;7.50;;;2.40;;
13238;SDS011;6686;51.292;4.166;2023-03-23T04:28:49;4.87;;;2.10;;
13238;SDS011;6686;51.292;4.166;2023-03-23T04:31:35;5.10;;;2.20;;
13238;SDS011;6686;51.292;4.166;2023-03-23T04:34:22;7.67;;;1.93;;
13238;SDS011;6686;51.292;4.166;2023-03-23T04:37:08;7.30;;;2.37;;
13238;SDS011;6686;51.292;4.166;2023-03-23T04:39:55;7.43;;;2.93;;
13238;SDS011;6686;51.292;4.166;2023-03-23T04:42:41;5.43;;;1.87;;
13238;SDS011;6686;51.292;4.166;2023-03-23T04:45:26;8.57;;;2.23;;
13238;SDS011;6686;51.292;4.166;2023-03-23T04:48:12;4.87;;;1.87;;
13238;SDS011;6686;51.292;4.166;2023-03-23T04:50:58;4.00;;;1.90;;
13238;SDS011;6686;51.292;4.166;2023-03-23T04:53:44;5.87;;;2.60;;
13238;SDS011;6686;51.292;4.166;2023-03-23T04:56:30;8.83;;;2.63;;
13238;SDS011;6686;51.292;4.166;2023-03-23T04:59:15;6.73;;;2.13;;
13238;SDS011;6686;51.292;4.166;2023-03-23T05:02:01;6.97;;;2.53;;
13238;SDS011;6686;51.292;4.166;2023-03-23T05:04:47;7.87;;;2.37;;
13238;SDS011;6686;51.292;4.166;2023-03-23T05:07:33;7.00;;;2.10;;
13238;SDS011;6686;51.292;4.166;2023-03-23T05:10:19;6.60;;;2.37;;
13238;SDS011;6686;51.292;4.166;2023-03-23T05:13:04;6.60;;;2.20;;
13238;SDS011;6686;51.292;4.166;2023-03-23T05:15:51;7.17;;;2.20;;
13238;SDS011;6686;51.292;4.166;2023-03-23T05:18:37;6.68;;;2.60;;
13238;SDS011;6686;51.292;4.166;2023-03-23T05:21:23;6.73;;;2.47;;
13238;SDS011;6686;51.292;4.166;2023-03-23T05:24:08;5.33;;;2.33;;
13238;SDS011;6686;51.292;4.166;2023-03-23T05:26:55;10.30;;;2.57;;
13238;SDS011;6686;51.292;4.166;2023-03-23T05:29:40;5.93;;;2.27;;
13238;SDS011;6686;51.292;4.166;2023-03-23T05:32:27;5.67;;;2.40;;
13238;SDS011;6686;51.292;4.166;2023-03-23T05:35:15;6.87;;;2.10;;
13238;SDS011;6686;51.292;4.166;2023-03-23T05:38:01;7.23;;;2.30;;
13238;SDS011;6686;51.292;4.166;2023-03-23T05:40:47;8.23;;;2.50;;
13238;SDS011;6686;51.292;4.166;2023-03-23T05:43:33;5.23;;;2.00;;
13238;SDS011;6686;51.292;4.166;2023-03-23T05:46:19;6.40;;;2.50;;
13238;SDS011;6686;51.292;4.166;2023-03-23T05:49:05;5.97;;;2.57;;
13238;SDS011;6686;51.292;4.166;2023-03-23T05:51:51;6.03;;;2.80;;
13238;SDS011;6686;51.292;4.166;2023-03-23T05:54:37;10.18;;;2.90;;
13238;SDS011;6686;51.292;4.166;2023-03-23T05:57:22;5.57;;;2.27;;
13238;SDS011;6686;51.292;4.166;2023-03-23T06:00:08;7.83;;;2.53;;
13238;SDS011;6686;51.292;4.166;2023-03-23T06:02:56;6.37;;;2.63;;
13238;SDS011;6686;51.292;4.166;2023-03-23T06:05:43;6.37;;;2.67;;
13238;SDS011;6686;51.292;4.166;2023-03-23T06:08:31;9.43;;;2.80;;
13238;SDS011;6686;51.292;4.166;2023-03-23T06:11:17;6.37;;;2.33;;
13238;SDS011;6686;51.292;4.166;2023-03-23T06:14:03;8.10;;;2.20;;
13238;SDS011;6686;51.292;4.166;2023-03-23T06:16:49;6.17;;;2.50;;
13238;SDS011;6686;51.292;4.166;2023-03-23T06:19:35;6.20;;;2.53;;
13238;SDS011;6686;51.292;4.166;2023-03-23T06:22:22;6.17;;;2.30;;
13238;SDS011;6686;51.292;4.166;2023-03-23T06:25:09;7.22;;;3.25;;
13238;SDS011;6686;51.292;4.166;2023-03-23T06:27:54;8.00;;;2.47;;
13238;SDS011;6686;51.292;4.166;2023-03-23T06:30:41;5.73;;;2.23;;
13238;SDS011;6686;51.292;4.166;2023-03-23T06:33:26;6.90;;;2.07;;
13238;SDS011;6686;51.292;4.166;2023-03-23T06:36:12;4.00;;;1.90;;
13238;SDS011;6686;51.292;4.166;2023-03-23T06:38:59;4.73;;;1.83;;
13238;SDS011;6686;51.292;4.166;2023-03-23T06:41:46;6.63;;;1.90;;
13238;SDS011;6686;51.292;4.166;2023-03-23T06:44:32;7.80;;;2.13;;
13238;SDS011;6686;51.292;4.166;2023-03-23T06:47:17;5.65;;;2.20;;
13238;SDS011;6686;51.292;4.166;2023-03-23T06:50:03;7.27;;;2.07;;
13238;SDS011;6686;51.292;4.166;2023-03-23T06:52:50;5.90;;;2.07;;
13238;SDS011;6686;51.292;4.166;2023-03-23T06:55:36;6.00;;;2.00;;
13238;SDS011;6686;51.292;4.166;2023-03-23T06:58:21;5.57;;;2.13;;
13238;SDS011;6686;51.292;4.166;2023-03-23T07:01:08;4.23;;;1.70;;
13238;SDS011;6686;51.292;4.166;2023-03-23T07:03:54;5.03;;;2.20;;
13238;SDS011;6686;51.292;4.166;2023-03-23T07:06:39;4.70;;;2.20;;
13238;SDS011;6686;51.292;4.166;2023-03-23T07:09:25;5.63;;;2.33;;
13238;SDS011;6686;51.292;4.166;2023-03-23T07:12:11;3.33;;;2.00;;
13238;SDS011;6686;51.292;4.166;2023-03-23T07:14:56;5.77;;;1.80;;
13238;SDS011;6686;51.292;4.166;2023-03-23T07:17:43;5.07;;;1.50;;
13238;SDS011;6686;51.292;4.166;2023-03-23T07:20:29;4.10;;;1.70;;
13238;SDS011;6686;51.292;4.166;2023-03-23T07:23:16;6.17;;;1.83;;
13238;SDS011;6686;51.292;4.166;2023-03-23T07:26:01;2.83;;;1.60;;
13238;SDS011;6686;51.292;4.166;2023-03-23T07:28:47;8.53;;;2.50;;
13238;SDS011;6686;51.292;4.166;2023-03-23T07:31:33;2.83;;;1.87;;
13238;SDS011;6686;51.292;4.166;2023-03-23T07:34:20;3.83;;;1.73;;
13238;SDS011;6686;51.292;4.166;2023-03-23T07:37:05;6.53;;;2.12;;
13238;SDS011;6686;51.292;4.166;2023-03-23T07:39:50;10.37;;;2.67;;
13238;SDS011;6686;51.292;4.166;2023-03-23T07:42:36;7.07;;;2.13;;
13238;SDS011;6686;51.292;4.166;2023-03-23T07:45:23;5.37;;;2.70;;
13238;SDS011;6686;51.292;4.166;2023-03-23T07:48:09;3.53;;;1.70;;
13238;SDS011;6686;51.292;4.166;2023-03-23T07:50:55;4.03;;;1.83;;
13238;SDS011;6686;51.292;4.166;2023-03-23T07:53:41;5.60;;;1.90;;
13238;SDS011;6686;51.292;4.166;2023-03-23T07:56:27;3.73;;;1.67;;
13238;SDS011;6686;51.292;4.166;2023-03-23T07:59:12;4.63;;;1.87;;
13238;SDS011;6686;51.292;4.166;2023-03-23T08:01:59;3.30;;;1.80;;
13238;SDS011;6686;51.292;4.166;2023-03-23T08:04:45;7.10;;;2.20;;
13238;SDS011;6686;51.292;4.166;2023-03-23T08:07:31;3.40;;;1.90;;
13238;SDS011;6686;51.292;4.166;2023-03-23T08:10:16;5.00;;;1.70;;
13238;SDS011;6686;51.292;4.166;2023-03-23T08:13:02;5.50;;;1.60;;
13238;SDS011;6686;51.292;4.166;2023-03-23T08:15:49;4.23;;;1.83;;
13238;SDS011;6686;51.292;4.166;2023-03-23T08:18:35;3.63;;;1.80;;
13238;SDS011;6686;51.292;4.166;2023-03-23T08:21:21;6.10;;;2.10;;
13238;SDS011;6686;51.292;4.166;2023-03-23T08:24:06;5.97;;;2.33;;
13238;SDS011;6686;51.292;4.166;2023-03-23T08:26:52;5.67;;;2.00;;
13238;SDS011;6686;51.292;4.166;2023-03-23T08:29:38;3.50;;;1.63;;
13238;SDS011;6686;51.292;4.166;2023-03-23T08:32:25;8.13;;;2.30;;
13238;SDS011;6686;51.292;4.166;2023-03-23T08:35:11;4.83;;;2.13;;
13238;SDS011;6686;51.292;4.166;2023-03-23T08:37:56;7.03;;;2.20;;
13238;SDS011;6686;51.292;4.166;2023-03-23T08:40:42;6.57;;;2.00;;
13238;SDS011;6686;51.292;4.166;2023-03-23T08:43:28;8.37;;;2.30;;
13238;SDS011;6686;51.292;4.166;2023-03-23T08:46:14;6.17;;;2.10;;
13238;SDS011;6686;51.292;4.166;2023-03-23T08:49:00;7.13;;;2.63;;
13238;SDS011;6686;51.292;4.166;2023-03-23T08:51:46;6.37;;;2.50;;
13238;SDS011;6686;51.292;4.166;2023-03-23T08:54:31;5.93;;;2.10;;
13238;SDS011;6686;51.292;4.166;2023-03-23T08:57:17;5.90;;;2.65;;
13238;SDS011;6686;51.292;4.166;2023-03-23T09:00:04;6.50;;;2.70;;
13238;SDS011;6686;51.292;4.166;2023-03-23T09:02:52;7.22;;;2.45;;
13238;SDS011;6686;51.292;4.166;2023-03-23T09:05:35;7.30;;;2.90;;
13238;SDS011;6686;51.292;4.166;2023-03-23T09:08:21;5.77;;;2.40;;
13238;SDS011;6686;51.292;4.166;2023-03-23T09:11:07;6.70;;;2.23;;
13238;SDS011;6686;51.292;4.166;2023-03-23T09:13:53;8.73;;;2.50;;
13238;SDS011;6686;51.292;4.166;2023-03-23T09:16:39;10.27;;;2.63;;
13238;SDS011;6686;51.292;4.166;2023-03-23T09:19:25;9.37;;;2.57;;
13238;SDS011;6686;51.292;4.166;2023-03-23T09:22:11;8.30;;;2.10;;
13238;SDS011;6686;51.292;4.166;2023-03-23T09:24:57;6.07;;;2.20;;
13238;SDS011;6686;51.292;4.166;2023-03-23T09:27:43;4.47;;;2.17;;
13238;SDS011;6686;51.292;4.166;2023-03-23T09:30:30;8.10;;;2.50;;
13238;SDS011;6686;51.292;4.166;2023-03-23T09:33:18;8.07;;;2.30;;
13238;SDS011;6686;51.292;4.166;2023-03-23T09:36:03;5.40;;;2.00;;
13238;SDS011;6686;51.292;4.166;2023-03-23T09:38:49;5.70;;;2.20;;
13238;SDS011;6686;51.292;4.166;2023-03-23T09:41:43;7.00;;;2.83;;
13238;SDS011;6686;51.292;4.166;2023-03-23T09:44:33;7.93;;;2.40;;
13238;SDS011;6686;51.292;4.166;2023-03-23T09:50:34;7.23;;;2.17;;
13238;SDS011;6686;51.292;4.166;2023-03-23T09:53:22;6.15;;;2.25;;
13238;SDS011;6686;51.292;4.166;2023-03-23T09:56:14;5.93;;;2.17;;
13238;SDS011;6686;51.292;4.166;2023-03-23T10:02:20;5.25;;;2.20;;
13238;SDS011;6686;51.292;4.166;2023-03-23T10:08:08;5.53;;;2.07;;
13238;SDS011;6686;51.292;4.166;2023-03-23T10:10:55;6.30;;;2.10;;
13238;SDS011;6686;51.292;4.166;2023-03-23T10:17:15;4.30;;;1.77;;
13238;SDS011;6686;51.292;4.166;2023-03-23T10:20:09;4.40;;;1.90;;
13238;SDS011;6686;51.292;4.166;2023-03-23T10:25:55;4.23;;;1.80;;
13238;SDS011;6686;51.292;4.166;2023-03-23T10:28:54;5.53;;;2.00;;
13238;SDS011;6686;51.292;4.166;2023-03-23T10:31:37;3.47;;;1.90;;
13238;SDS011;6686;51.292;4.166;2023-03-23T10:37:13;4.33;;;1.73;;
13238;SDS011;6686;51.292;4.166;2023-03-23T10:39:59;5.37;;;1.70;;
13238;SDS011;6686;51.292;4.166;2023-03-23T10:42:44;4.63;;;1.90;;
13238;SDS011;6686;51.292;4.166;2023-03-23T10:45:30;8.43;;;1.90;;
13238;SDS011;6686;51.292;4.166;2023-03-23T10:48:17;3.93;;;1.63;;
13238;SDS011;6686;51.292;4.166;2023-03-23T10:51:08;4.87;;;2.20;;
13238;SDS011;6686;51.292;4.166;2023-03-23T10:53:51;4.83;;;1.70;;
13238;SDS011;6686;51.292;4.166;2023-03-23T10:56:40;9.03;;;3.40;;
13238;SDS011;6686;51.292;4.166;2023-03-23T10:59:29;6.27;;;2.33;;
13238;SDS011;6686;51.292;4.166;2023-03-23T11:02:15;5.73;;;2.33;;
13238;SDS011;6686;51.292;4.166;2023-03-23T11:05:01;3.57;;;1.80;;
13238;SDS011;6686;51.292;4.166;2023-03-23T11:07:53;2.90;;;1.93;;
13238;SDS011;6686;51.292;4.166;2023-03-23T11:10:40;7.47;;;2.30;;
13238;SDS011;6686;51.292;4.166;2023-03-23T11:13:31;5.40;;;2.37;;
13238;SDS011;6686;51.292;4.166;2023-03-23T11:16:23;7.17;;;2.77;;
13238;SDS011;6686;51.292;4.166;2023-03-23T11:19:12;6.33;;;2.40;;
13238;SDS011;6686;51.292;4.166;2023-03-23T11:22:06;6.33;;;2.40;;
13238;SDS011;6686;51.292;4.166;2023-03-23T11:24:55;6.93;;;2.47;;
13238;SDS011;6686;51.292;4.166;2023-03-23T11:27:40;6.85;;;2.62;;
13238;SDS011;6686;51.292;4.166;2023-03-23T11:30:26;8.30;;;2.60;;
13238;SDS011;6686;51.292;4.166;2023-03-23T11:33:12;8.70;;;2.90;;
13238;SDS011;6686;51.292;4.166;2023-03-23T11:35:58;6.60;;;2.63;;
13238;SDS011;6686;51.292;4.166;2023-03-23T11:38:44;6.83;;;2.53;;
13238;SDS011;6686;51.292;4.166;2023-03-23T11:41:31;5.40;;;2.70;;
13238;SDS011;6686;51.292;4.166;2023-03-23T11:44:15;9.60;;;2.87;;
13238;SDS011;6686;51.292;4.166;2023-03-23T11:47:16;7.73;;;2.40;;
13238;SDS011;6686;51.292;4.166;2023-03-23T11:50:00;6.93;;;2.73;;
13238;SDS011;6686;51.292;4.166;2023-03-23T11:53:01;7.93;;;2.87;;
13238;SDS011;6686;51.292;4.166;2023-03-23T11:56:05;8.17;;;2.50;;
13238;SDS011;6686;51.292;4.166;2023-03-23T11:58:46;5.53;;;2.40;;
13238;SDS011;6686;51.292;4.166;2023-03-23T12:04:31;9.30;;;2.87;;
13238;SDS011;6686;51.292;4.166;2023-03-23T12:13:09;7.00;;;2.53;;
13238;SDS011;6686;51.292;4.166;2023-03-23T12:16:11;6.37;;;2.53;;
13238;SDS011;6686;51.292;4.166;2023-03-23T12:22:19;5.40;;;2.20;;
13238;SDS011;6686;51.292;4.166;2023-03-23T12:25:17;6.32;;;2.50;;
13238;SDS011;6686;51.292;4.166;2023-03-23T12:31:36;9.63;;;2.92;;
13238;SDS011;6686;51.292;4.166;2023-03-23T12:34:32;8.07;;;2.63;;
13238;SDS011;6686;51.292;4.166;2023-03-23T12:37:38;6.43;;;2.30;;
13238;SDS011;6686;51.292;4.166;2023-03-23T12:40:35;6.23;;;2.43;;
13238;SDS011;6686;51.292;4.166;2023-03-23T12:44:09;9.73;;;3.03;;
13238;SDS011;6686;51.292;4.166;2023-03-23T12:46:38;6.87;;;2.87;;
13238;SDS011;6686;51.292;4.166;2023-03-23T12:49:46;7.67;;;3.00;;
13238;SDS011;6686;51.292;4.166;2023-03-23T12:52:43;7.67;;;2.90;;
13238;SDS011;6686;51.292;4.166;2023-03-23T12:55:36;9.87;;;3.50;;
13238;SDS011;6686;51.292;4.166;2023-03-23T12:58:26;9.83;;;3.43;;
13238;SDS011;6686;51.292;4.166;2023-03-23T13:01:12;11.43;;;2.90;;
13238;SDS011;6686;51.292;4.166;2023-03-23T13:03:58;14.73;;;4.53;;
13238;SDS011;6686;51.292;4.166;2023-03-23T13:06:44;10.20;;;3.10;;
13238;SDS011;6686;51.292;4.166;2023-03-23T13:09:46;8.80;;;3.20;;
13238;SDS011;6686;51.292;4.166;2023-03-23T13:12:30;9.37;;;3.33;;
13238;SDS011;6686;51.292;4.166;2023-03-23T13:15:19;11.63;;;3.50;;
13238;SDS011;6686;51.292;4.166;2023-03-23T13:18:39;10.60;;;3.00;;
13238;SDS011;6686;51.292;4.166;2023-03-23T13:21:19;10.53;;;3.97;;
13238;SDS011;6686;51.292;4.166;2023-03-23T13:24:12;8.70;;;3.03;;
13238;SDS011;6686;51.292;4.166;2023-03-23T13:26:56;8.30;;;2.97;;
13238;SDS011;6686;51.292;4.166;2023-03-23T13:29:45;7.40;;;2.87;;
13238;SDS011;6686;51.292;4.166;2023-03-23T13:32:35;6.53;;;2.83;;
13238;SDS011;6686;51.292;4.166;2023-03-23T13:35:17;8.73;;;2.73;;
13238;SDS011;6686;51.292;4.166;2023-03-23T13:38:11;11.27;;;2.60;;
13238;SDS011;6686;51.292;4.166;2023-03-23T13:40:48;12.30;;;3.47;;
13238;SDS011;6686;51.292;4.166;2023-03-23T13:43:35;9.00;;;3.20;;
13238;SDS011;6686;51.292;4.166;2023-03-23T13:46:29;19.03;;;3.90;;
13238;SDS011;6686;51.292;4.166;2023-03-23T13:49:16;8.23;;;3.23;;
13238;SDS011;6686;51.292;4.166;2023-03-23T13:55:49;7.87;;;2.80;;
13238;SDS011;6686;51.292;4.166;2023-03-23T13:58:21;6.97;;;2.73;;
13238;SDS011;6686;51.292;4.166;2023-03-23T14:03:54;6.97;;;3.20;;
13238;SDS011;6686;51.292;4.166;2023-03-23T14:06:41;7.30;;;3.10;;
13238;SDS011;6686;51.292;4.166;2023-03-23T14:09:36;8.33;;;2.70;;
13238;SDS011;6686;51.292;4.166;2023-03-23T14:12:19;7.87;;;2.60;;
13238;SDS011;6686;51.292;4.166;2023-03-23T14:15:11;6.73;;;2.67;;
13238;SDS011;6686;51.292;4.166;2023-03-23T14:17:53;8.57;;;2.97;;
13238;SDS011;6686;51.292;4.166;2023-03-23T14:20:39;9.20;;;2.70;;
13238;SDS011;6686;51.292;4.166;2023-03-23T14:23:25;8.13;;;2.63;;
13238;SDS011;6686;51.292;4.166;2023-03-23T14:26:18;7.37;;;3.03;;
13238;SDS011;6686;51.292;4.166;2023-03-23T14:29:04;7.32;;;2.85;;
13238;SDS011;6686;51.292;4.166;2023-03-23T14:31:52;8.43;;;3.30;;
13238;SDS011;6686;51.292;4.166;2023-03-23T14:34:35;7.83;;;3.10;;
13238;SDS011;6686;51.292;4.166;2023-03-23T14:37:21;8.67;;;3.03;;
13238;SDS011;6686;51.292;4.166;2023-03-23T14:40:08;10.00;;;2.60;;
13238;SDS011;6686;51.292;4.166;2023-03-23T14:42:52;5.70;;;2.43;;
13238;SDS011;6686;51.292;4.166;2023-03-23T14:45:39;5.37;;;2.40;;
13238;SDS011;6686;51.292;4.166;2023-03-23T14:48:24;6.93;;;2.47;;
13238;SDS011;6686;51.292;4.166;2023-03-23T14:51:17;8.97;;;3.20;;
13238;SDS011;6686;51.292;4.166;2023-03-23T14:54:07;5.87;;;2.40;;
13238;SDS011;6686;51.292;4.166;2023-03-23T14:56:49;4.10;;;2.23;;
13238;SDS011;6686;51.292;4.166;2023-03-23T14:59:34;7.80;;;2.17;;
13238;SDS011;6686;51.292;4.166;2023-03-23T15:02:22;11.67;;;2.93;;
13238;SDS011;6686;51.292;4.166;2023-03-23T15:05:22;4.63;;;2.33;;
13238;SDS011;6686;51.292;4.166;2023-03-23T15:08:11;6.90;;;2.47;;
13238;SDS011;6686;51.292;4.166;2023-03-23T15:11:11;5.80;;;2.20;;
13238;SDS011;6686;51.292;4.166;2023-03-23T15:14:08;5.40;;;2.27;;
13238;SDS011;6686;51.292;4.166;2023-03-23T15:16:51;4.27;;;2.23;;
13238;SDS011;6686;51.292;4.166;2023-03-23T15:19:37;8.50;;;2.85;;
13238;SDS011;6686;51.292;4.166;2023-03-23T15:22:24;9.30;;;2.73;;
13238;SDS011;6686;51.292;4.166;2023-03-23T15:30:52;7.13;;;2.57;;
13238;SDS011;6686;51.292;4.166;2023-03-23T15:33:39;6.03;;;2.47;;
13238;SDS011;6686;51.292;4.166;2023-03-23T15:36:24;7.13;;;2.60;;
13238;SDS011;6686;51.292;4.166;2023-03-23T15:39:11;6.67;;;2.77;;
13238;SDS011;6686;51.292;4.166;2023-03-23T15:41:56;7.03;;;2.87;;
13238;SDS011;6686;51.292;4.166;2023-03-23T15:44:42;9.27;;;2.90;;
13238;SDS011;6686;51.292;4.166;2023-03-23T15:47:35;9.77;;;2.80;;
13238;SDS011;6686;51.292;4.166;2023-03-23T15:53:29;9.13;;;2.70;;
13238;SDS011;6686;51.292;4.166;2023-03-23T15:56:13;10.57;;;2.80;;
13238;SDS011;6686;51.292;4.166;2023-03-23T15:58:58;8.23;;;2.70;;
13238;SDS011;6686;51.292;4.166;2023-03-23T16:01:44;6.37;;;2.87;;
13238;SDS011;6686;51.292;4.166;2023-03-23T16:04:30;9.67;;;3.20;;
13238;SDS011;6686;51.292;4.166;2023-03-23T16:07:16;8.80;;;2.70;;
13238;SDS011;6686;51.292;4.166;2023-03-23T16:10:02;8.77;;;3.00;;
13238;SDS011;6686;51.292;4.166;2023-03-23T16:12:48;9.87;;;2.87;;
13238;SDS011;6686;51.292;4.166;2023-03-23T16:15:34;13.53;;;3.27;;
13238;SDS011;6686;51.292;4.166;2023-03-23T16:18:20;9.20;;;3.00;;
13238;SDS011;6686;51.292;4.166;2023-03-23T16:21:06;6.40;;;2.90;;
13238;SDS011;6686;51.292;4.166;2023-03-23T16:23:52;8.87;;;3.80;;
13238;SDS011;6686;51.292;4.166;2023-03-23T16:26:38;9.88;;;3.45;;
13238;SDS011;6686;51.292;4.166;2023-03-23T16:29:24;6.70;;;2.80;;
13238;SDS011;6686;51.292;4.166;2023-03-23T16:32:09;9.10;;;2.90;;
13238;SDS011;6686;51.292;4.166;2023-03-23T16:34:55;12.53;;;3.00;;
13238;SDS011;6686;51.292;4.166;2023-03-23T16:37:48;8.82;;;3.15;;
13238;SDS011;6686;51.292;4.166;2023-03-23T16:40:32;12.57;;;3.00;;
13238;SDS011;6686;51.292;4.166;2023-03-23T16:43:19;14.33;;;4.03;;
13238;SDS011;6686;51.292;4.166;2023-03-23T16:46:04;8.93;;;3.50;;
13238;SDS011;6686;51.292;4.166;2023-03-23T16:48:50;8.60;;;2.90;;
13238;SDS011;6686;51.292;4.166;2023-03-23T16:51:36;12.30;;;3.60;;
13238;SDS011;6686;51.292;4.166;2023-03-23T16:54:22;10.40;;;3.57;;
13238;SDS011;6686;51.292;4.166;2023-03-23T16:57:09;4.67;;;2.70;;
13238;SDS011;6686;51.292;4.166;2023-03-23T16:59:54;9.23;;;3.20;;
13238;SDS011;6686;51.292;4.166;2023-03-23T17:02:41;10.50;;;3.43;;
13238;SDS011;6686;51.292;4.166;2023-03-23T17:05:26;11.00;;;3.17;;
13238;SDS011;6686;51.292;4.166;2023-03-23T17:08:12;10.23;;;3.23;;
13238;SDS011;6686;51.292;4.166;2023-03-23T17:15:54;9.30;;;3.43;;
13238;SDS011;6686;51.292;4.166;2023-03-23T17:18:40;6.87;;;2.77;;
13238;SDS011;6686;51.292;4.166;2023-03-23T17:21:26;7.40;;;2.90;;
13238;SDS011;6686;51.292;4.166;2023-03-23T17:24:12;6.83;;;2.80;;
13238;SDS011;6686;51.292;4.166;2023-03-23T17:26:58;7.77;;;3.37;;
13238;SDS011;6686;51.292;4.166;2023-03-23T17:29:44;8.40;;;2.90;;
13238;SDS011;6686;51.292;4.166;2023-03-23T17:32:29;7.37;;;2.43;;
13238;SDS011;6686;51.292;4.166;2023-03-23T17:35:15;11.53;;;3.13;;
13238;SDS011;6686;51.292;4.166;2023-03-23T17:38:01;7.67;;;2.90;;
13238;SDS011;6686;51.292;4.166;2023-03-23T17:40:47;6.43;;;2.67;;
13238;SDS011;6686;51.292;4.166;2023-03-23T17:43:33;8.33;;;3.27;;
13238;SDS011;6686;51.292;4.166;2023-03-23T17:46:19;9.00;;;3.03;;
13238;SDS011;6686;51.292;4.166;2023-03-23T17:49:05;6.27;;;2.67;;
13238;SDS011;6686;51.292;4.166;2023-03-23T17:51:51;8.07;;;3.10;;
13238;SDS011;6686;51.292;4.166;2023-03-23T17:54:37;7.17;;;2.80;;
13238;SDS011;6686;51.292;4.166;2023-03-23T17:57:23;7.30;;;3.10;;
13238;SDS011;6686;51.292;4.166;2023-03-23T18:00:09;10.50;;;3.00;;
13238;SDS011;6686;51.292;4.166;2023-03-23T18:02:55;9.63;;;3.23;;
13238;SDS011;6686;51.292;4.166;2023-03-23T18:05:40;8.93;;;3.90;;
13238;SDS011;6686;51.292;4.166;2023-03-23T18:08:26;6.57;;;3.10;;
13238;SDS011;6686;51.292;4.166;2023-03-23T18:11:12;7.47;;;3.37;;
13238;SDS011;6686;51.292;4.166;2023-03-23T18:13:58;8.63;;;3.17;;